Time;durP1;ratioP1;P1;durP2;ratioP2;P2;SDS_P1;SDS_P2;PMS_P1;PMS_P2;Temp;Humidity;BMP_temperature;BMP_pressure;BME280_temperature;BME280_humidity;BME280_pressure;Samples;Min_cycle;Max_cycle;Signal;HPM_P1;HPM_P2
2021/06/12 00:00:37;;;;;;;37.60;27.80;;;18.30;90.50;;;;;;5068239;28;20045;-53
2021/06/12 00:03:23;;;;;;;37.40;27.00;;;18.30;90.50;;;;;;5060929;28;20566;-54
2021/06/12 00:05:50;;;;;;;36.05;26.38;;;18.20;90.50;;;;;;5048035;28;20049;-50
2021/06/12 00:08:36;;;;;;;37.33;27.20;;;18.20;90.60;;;;;;5057692;28;20040;-54
2021/06/12 00:11:22;;;;;;;39.85;27.63;;;18.20;90.60;;;;;;5049117;28;20056;-52
2021/06/12 00:14:08;;;;;;;39.15;28.13;;;18.20;90.60;;;;;;5066793;28;20045;-50
2021/06/12 00:16:49;;;;;;;36.58;26.30;;;18.20;90.70;;;;;;5072589;28;20041;-51
2021/06/12 00:19:28;;;;;;;43.97;28.77;;;18.20;90.70;;;;;;5073498;28;20049;-54
2021/06/12 00:21:57;;;;;;;38.28;27.13;;;18.20;90.80;;;;;;5071685;28;20131;-54
2021/06/12 00:24:23;;;;;;;38.78;27.75;;;18.20;90.80;;;;;;5072120;28;20572;-52
2021/06/12 00:26:50;;;;;;;39.75;28.02;;;18.20;90.80;;;;;;5073507;28;20071;-50
2021/06/12 00:29:16;;;;;;;37.83;27.33;;;18.20;90.90;;;;;;5075127;28;20040;-52
2021/06/12 00:31:42;;;;;;;39.75;28.17;;;18.20;90.90;;;;;;5073560;28;20413;-49
2021/06/12 00:34:10;;;;;;;38.70;27.48;;;18.20;90.90;;;;;;5075907;28;20040;-49
2021/06/12 00:36:36;;;;;;;43.10;28.38;;;18.20;90.90;;;;;;5066657;28;20114;-52
2021/06/12 00:39:04;;;;;;;36.50;26.42;;;18.20;90.90;;;;;;5077245;28;20040;-50
2021/06/12 00:41:32;;;;;;;38.67;26.15;;;18.20;90.80;;;;;;5074980;28;20053;-54
2021/06/12 00:44:04;;;;;;;37.67;26.77;;;18.20;90.80;;;;;;5060776;28;20040;-52
2021/06/12 00:46:31;;;;;;;36.28;25.48;;;18.20;90.80;;;;;;5075462;28;20098;-49
2021/06/12 00:48:58;;;;;;;36.25;25.50;;;18.20;90.80;;;;;;5074889;28;20036;-50
2021/06/12 00:51:29;;;;;;;35.60;25.10;;;18.20;90.70;;;;;;5076833;28;20478;-52
2021/06/12 00:53:58;;;;;;;36.50;25.05;;;18.20;90.70;;;;;;5073192;28;20086;-51
2021/06/12 00:56:25;;;;;;;38.17;25.50;;;18.10;90.70;;;;;;5048647;28;20466;-49
2021/06/12 00:58:53;;;;;;;33.03;24.88;;;18.20;90.70;;;;;;5066812;28;20037;-50
2021/06/12 01:01:21;;;;;;;35.53;25.20;;;18.20;90.60;;;;;;5064537;28;20048;-49
2021/06/12 01:03:53;;;;;;;33.65;24.55;;;18.20;90.60;;;;;;5055782;28;20040;-49
2021/06/12 01:06:24;;;;;;;35.53;25.80;;;18.20;90.60;;;;;;5073261;28;20070;-51
2021/06/12 01:09:01;;;;;;;36.65;26.05;;;18.20;90.70;;;;;;5059575;28;20178;-51
2021/06/12 01:12:19;;;;;;;42.05;25.70;;;18.20;90.90;;;;;;5066182;28;20040;-53
2021/06/12 01:15:09;;;;;;;37.22;26.92;;;18.20;91.00;;;;;;5065438;28;20047;-50
2021/06/12 01:17:59;;;;;;;38.83;25.80;;;18.20;91.00;;;;;;5081121;28;20048;-49
2021/06/12 01:20:43;;;;;;;35.90;25.27;;;18.20;91.00;;;;;;5077537;28;20049;-53
2021/06/12 01:24:15;;;;;;;39.30;26.98;;;18.20;90.90;;;;;;5065693;28;20432;-51
2021/06/12 01:27:07;;;;;;;37.95;25.00;;;18.10;91.00;;;;;;5063070;28;20674;-52
2021/06/12 01:30:08;;;;;;;34.70;24.83;;;18.10;90.90;;;;;;5068728;28;20048;-52
2021/06/12 01:33:14;;;;;;;37.13;26.42;;;18.20;90.90;;;;;;5043506;28;20052;-51
2021/06/12 01:36:05;;;;;;;36.95;25.85;;;18.10;90.90;;;;;;5071400;28;20048;-51
2021/06/12 01:38:54;;;;;;;35.72;25.45;;;18.10;90.80;;;;;;5071777;28;20040;-54
2021/06/12 01:41:41;;;;;;;40.42;27.10;;;18.10;90.80;;;;;;5054578;28;20109;-50
2021/06/12 01:44:30;;;;;;;34.10;25.00;;;18.10;90.90;;;;;;5067589;28;20059;-49
2021/06/12 01:47:16;;;;;;;36.22;25.13;;;18.10;90.90;;;;;;5071918;28;20404;-50
2021/06/12 01:50:05;;;;;;;33.80;24.60;;;18.10;90.90;;;;;;5059448;28;20045;-50
2021/06/12 01:52:41;;;;;;;37.53;26.17;;;18.10;90.90;;;;;;5072968;28;20044;-50
2021/06/12 01:55:34;;;;;;;35.53;25.98;;;18.10;91.00;;;;;;5057506;28;20048;-52
2021/06/12 01:58:23;;;;;;;38.28;25.80;;;18.10;91.00;;;;;;5069137;28;20523;-54
2021/06/12 02:01:15;;;;;;;36.47;25.08;;;18.10;91.00;;;;;;5035397;28;20048;-51
2021/06/12 02:04:03;;;;;;;35.92;24.67;;;18.00;91.00;;;;;;5044661;28;20135;-51
2021/06/12 02:06:59;;;;;;;36.20;24.73;;;18.00;91.00;;;;;;5071972;28;20048;-49
2021/06/12 02:09:51;;;;;;;36.95;24.58;;;18.00;91.00;;;;;;5050169;28;20037;-50
2021/06/12 02:12:37;;;;;;;37.55;24.30;;;18.00;91.10;;;;;;5063362;28;20041;-51
2021/06/12 02:15:25;;;;;;;35.30;24.58;;;18.00;91.00;;;;;;5068424;28;20040;-52
2021/06/12 02:18:12;;;;;;;36.42;24.77;;;18.00;91.00;;;;;;5065052;28;20049;-55
2021/06/12 02:21:00;;;;;;;36.50;25.88;;;18.00;91.00;;;;;;5058978;28;20493;-54
2021/06/12 02:23:51;;;;;;;35.20;24.75;;;18.00;91.00;;;;;;5044074;28;20052;-53
2021/06/12 02:26:45;;;;;;;38.13;26.10;;;18.00;91.10;;;;;;5071289;28;20041;-52
2021/06/12 02:29:32;;;;;;;34.22;24.60;;;18.00;91.10;;;;;;5058023;28;20049;-53
2021/06/12 02:32:20;;;;;;;35.85;25.60;;;17.90;91.10;;;;;;5070465;28;20074;-55
2021/06/12 02:35:07;;;;;;;32.97;23.85;;;17.90;91.10;;;;;;5070572;28;20044;-51
2021/06/12 02:37:53;;;;;;;36.83;24.27;;;17.90;91.20;;;;;;5071607;28;20075;-52
2021/06/12 02:40:41;;;;;;;35.72;25.17;;;17.90;91.30;;;;;;5072281;28;20398;-52
2021/06/12 02:43:28;;;;;;;35.55;24.83;;;17.90;91.30;;;;;;5072081;28;20044;-53
2021/06/12 02:46:21;;;;;;;36.78;26.10;;;17.90;91.30;;;;;;5071160;28;20556;-52
2021/06/12 02:49:11;;;;;;;36.50;24.67;;;17.90;91.30;;;;;;5071667;28;20131;-55
2021/06/12 02:52:00;;;;;;;42.00;25.48;;;17.90;91.40;;;;;;5051071;28;20056;-53
2021/06/12 02:54:47;;;;;;;33.50;25.70;;;17.90;91.40;;;;;;5070142;28;20040;-52
2021/06/12 02:57:35;;;;;;;38.00;25.25;;;17.90;91.70;;;;;;5058290;28;20044;-53
2021/06/12 03:00:22;;;;;;;33.38;23.67;;;17.90;91.50;;;;;;5057041;28;20048;-55
2021/06/12 03:03:08;;;;;;;35.42;24.88;;;17.80;91.50;;;;;;5071461;28;20164;-52
2021/06/12 03:05:58;;;;;;;36.30;25.25;;;17.90;91.50;;;;;;5083229;28;20116;-53
2021/06/12 03:08:48;;;;;;;37.85;26.13;;;17.90;91.60;;;;;;5069567;28;20489;-52
2021/06/12 03:11:27;;;;;;;42.13;27.38;;;17.90;91.60;;;;;;5045915;28;20071;-53
2021/06/12 03:13:55;;;;;;;42.80;27.70;;;17.90;91.60;;;;;;5061197;28;20036;-53
2021/06/12 03:16:23;;;;;;;42.17;27.17;;;17.90;91.50;;;;;;5066711;28;20119;-50
2021/06/12 03:19:14;;;;;;;44.85;26.30;;;17.90;91.60;;;;;;5064642;28;20497;-53
2021/06/12 03:22:02;;;;;;;45.45;29.13;;;17.90;91.50;;;;;;5073976;28;20380;-53
2021/06/12 03:24:47;;;;;;;42.72;27.48;;;17.90;91.40;;;;;;5058593;28;20083;-53
2021/06/12 03:27:43;;;;;;;44.92;28.50;;;17.90;91.40;;;;;;5070316;28;20136;-53
2021/06/12 03:30:10;;;;;;;39.25;27.90;;;17.90;91.50;;;;;;5049316;28;20053;-54
2021/06/12 03:32:37;;;;;;;44.38;26.88;;;17.90;91.40;;;;;;5042114;28;20049;-52
2021/06/12 03:35:03;;;;;;;38.50;26.80;;;17.90;91.50;;;;;;5045830;28;20112;-52
2021/06/12 03:37:34;;;;;;;39.63;27.08;;;17.90;91.50;;;;;;5050117;28;20449;-54
2021/06/12 03:40:00;;;;;;;42.42;28.50;;;17.90;91.50;;;;;;5047253;28;20048;-52
2021/06/12 03:42:47;;;;;;;41.72;27.58;;;17.90;91.50;;;;;;5050979;28;20163;-54
2021/06/12 03:45:18;;;;;;;41.92;26.10;;;17.90;91.60;;;;;;5044336;28;20045;-55
2021/06/12 03:47:49;;;;;;;37.83;26.60;;;17.90;91.50;;;;;;5046307;28;20044;-54
2021/06/12 03:50:36;;;;;;;41.85;27.05;;;17.90;91.60;;;;;;5059949;28;20098;-54
2021/06/12 03:53:29;;;;;;;38.80;26.63;;;17.90;91.60;;;;;;5047652;28;20148;-55
2021/06/12 03:56:19;;;;;;;38.78;26.33;;;17.90;91.60;;;;;;5034472;28;20041;-55
2021/06/12 03:59:07;;;;;;;41.55;27.38;;;17.90;91.60;;;;;;5048743;28;20048;-54
2021/06/12 04:01:55;;;;;;;38.53;25.90;;;17.90;91.60;;;;;;5055731;28;20048;-53
2021/06/12 04:04:43;;;;;;;40.20;25.85;;;17.90;91.60;;;;;;5047110;28;20413;-55
2021/06/12 04:07:29;;;;;;;43.65;25.77;;;17.90;91.60;;;;;;5037506;28;20045;-53
2021/06/12 04:09:57;;;;;;;39.95;26.30;;;17.90;91.60;;;;;;5067726;28;20535;-54
2021/06/12 04:12:33;;;;;;;38.72;25.23;;;17.90;91.70;;;;;;5040566;28;20129;-55
2021/06/12 04:14:59;;;;;;;40.63;25.65;;;17.90;91.70;;;;;;5070555;28;20089;-54
2021/06/12 04:17:45;;;;;;;37.38;24.27;;;18.00;91.80;;;;;;5037176;28;20056;-54
2021/06/12 04:20:30;;;;;;;36.50;24.23;;;18.00;92.00;;;;;;5052698;28;20059;-53
2021/06/12 04:23:17;;;;;;;34.17;22.60;;;18.00;91.60;;;;;;5053482;28;20124;-54
2021/06/12 04:26:03;;;;;;;34.00;22.58;;;18.00;91.60;;;;;;5049129;28;20160;-55
2021/06/12 04:28:49;;;;;;;39.10;23.95;;;18.00;91.60;;;;;;5050472;28;20040;-55
2021/06/12 04:31:35;;;;;;;38.33;23.77;;;18.00;91.50;;;;;;5028393;28;20493;-54
2021/06/12 04:34:22;;;;;;;38.63;23.58;;;18.00;91.50;;;;;;5042965;28;20048;-54
2021/06/12 04:37:08;;;;;;;36.22;22.42;;;18.00;91.50;;;;;;5027680;28;20073;-54
2021/06/12 04:39:54;;;;;;;37.33;24.77;;;18.00;91.50;;;;;;5041747;28;20183;-55
2021/06/12 04:42:40;;;;;;;36.05;25.02;;;18.10;91.90;;;;;;5045561;28;20135;-53
2021/06/12 04:45:08;;;;;;;38.70;24.42;;;18.10;91.70;;;;;;5045915;28;20086;-53
2021/06/12 04:47:54;;;;;;;39.50;24.15;;;18.10;91.70;;;;;;5026510;28;20041;-54
2021/06/12 04:50:23;;;;;;;39.38;24.63;;;18.10;91.70;;;;;;5053138;28;20060;-55
2021/06/12 04:53:10;;;;;;;34.50;24.60;;;18.20;91.80;;;;;;5044164;28;20037;-52
2021/06/12 04:55:44;;;;;;;37.15;25.63;;;18.20;91.80;;;;;;5048462;28;20111;-54
2021/06/12 04:58:12;;;;;;;38.42;24.92;;;18.20;91.80;;;;;;5048068;28;20132;-54
2021/06/12 05:00:44;;;;;;;38.03;23.40;;;18.20;91.60;;;;;;5063828;28;20067;-54
2021/06/12 05:03:15;;;;;;;36.60;22.90;;;18.30;91.60;;;;;;5049124;28;20049;-55
2021/06/12 05:05:51;;;;;;;32.88;21.25;;;18.30;91.40;;;;;;5050816;28;20191;-55
2021/06/12 05:08:22;;;;;;;27.13;18.40;;;18.30;91.30;;;;;;5052479;28;20041;-56
2021/06/12 05:10:57;;;;;;;29.83;18.95;;;18.30;91.10;;;;;;5039609;28;20049;-56
2021/06/12 05:13:25;;;;;;;26.70;18.25;;;18.20;90.80;;;;;;5046958;28;20041;-52
2021/06/12 05:15:55;;;;;;;23.50;16.52;;;18.30;90.90;;;;;;5041278;28;20060;-53
2021/06/12 05:18:31;;;;;;;25.63;15.65;;;18.30;90.80;;;;;;5052198;28;20041;-54
2021/06/12 05:20:57;;;;;;;24.88;15.80;;;18.20;90.70;;;;;;5065751;28;20041;-54
2021/06/12 05:23:23;;;;;;;25.17;16.23;;;18.20;90.70;;;;;;5058237;28;20044;-54
2021/06/12 05:25:54;;;;;;;22.98;15.02;;;18.20;90.60;;;;;;5048826;28;20041;-51
2021/06/12 05:28:20;;;;;;;22.33;15.00;;;18.20;90.40;;;;;;5052946;28;20053;-55
2021/06/12 05:30:46;;;;;;;25.75;15.38;;;18.20;90.50;;;;;;5055750;28;20048;-53
2021/06/12 05:33:17;;;;;;;22.30;14.60;;;18.20;90.40;;;;;;5062134;28;20090;-54
2021/06/12 05:35:47;;;;;;;25.30;14.85;;;18.20;90.40;;;;;;5060311;28;20032;-55
2021/06/12 05:38:12;;;;;;;25.42;15.13;;;18.30;90.40;;;;;;5064514;28;20044;-54
2021/06/12 05:40:38;;;;;;;25.27;14.77;;;18.40;90.40;;;;;;5064009;28;20037;-53
2021/06/12 05:43:04;;;;;;;22.45;14.25;;;18.40;90.40;;;;;;5053121;28;20551;-50
2021/06/12 05:45:30;;;;;;;23.15;13.93;;;18.40;90.20;;;;;;5083399;28;20070;-54
2021/06/12 05:47:56;;;;;;;22.90;14.02;;;18.50;90.20;;;;;;5009223;28;20049;-54
2021/06/12 05:50:24;;;;;;;19.60;12.30;;;18.50;90.20;;;;;;5051231;28;20536;-54
2021/06/12 05:52:50;;;;;;;20.67;13.00;;;18.50;89.90;;;;;;5049862;28;20068;-54
2021/06/12 05:55:17;;;;;;;23.67;12.73;;;18.50;89.80;;;;;;5042143;28;20045;-53
2021/06/12 05:57:43;;;;;;;20.90;12.68;;;18.60;90.00;;;;;;5067620;28;20412;-54
2021/06/12 06:00:15;;;;;;;16.65;11.70;;;18.70;89.90;;;;;;5055482;28;20094;-53
2021/06/12 06:02:54;;;;;;;19.08;12.10;;;18.80;90.00;;;;;;5050755;28;20393;-54
2021/06/12 06:05:20;;;;;;;18.42;11.27;;;18.80;89.30;;;;;;5055094;28;20037;-52
2021/06/12 06:07:46;;;;;;;19.08;11.40;;;18.80;88.80;;;;;;5047057;28;20128;-53
2021/06/12 06:10:15;;;;;;;19.10;12.13;;;18.70;88.60;;;;;;5058208;28;20029;-54
2021/06/12 06:12:50;;;;;;;18.27;11.25;;;18.70;88.90;;;;;;5054354;28;20178;-51
2021/06/12 06:15:17;;;;;;;17.55;10.50;;;18.60;89.10;;;;;;5046174;28;20251;-54
2021/06/12 06:17:44;;;;;;;19.38;10.68;;;18.70;88.70;;;;;;5057959;28;20127;-54
2021/06/12 06:20:15;;;;;;;18.00;10.88;;;18.70;88.40;;;;;;5055486;28;20135;-53
2021/06/12 06:22:47;;;;;;;;;;;18.60;88.20;;;;;;5055663;28;20119;-53
2021/06/12 06:25:19;;;;;;;18.83;10.70;;;18.60;88.10;;;;;;5048546;28;19924;-52
2021/06/12 06:27:47;;;;;;;18.02;10.52;;;18.60;88.80;;;;;;5066912;28;20045;-53
2021/06/12 06:30:23;;;;;;;16.42;9.68;;;18.50;89.20;;;;;;5059690;28;20041;-55
2021/06/12 06:32:49;;;;;;;16.92;9.27;;;18.60;89.20;;;;;;5053277;28;20044;-53
2021/06/12 06:35:24;;;;;;;16.58;10.00;;;18.60;88.50;;;;;;5047969;28;20056;-54
2021/06/12 06:38:02;;;;;;;15.45;9.57;;;18.70;88.30;;;;;;5049656;28;20413;-53
2021/06/12 06:40:35;;;;;;;20.85;10.57;;;18.70;88.20;;;;;;5052156;28;20382;-54
2021/06/12 06:43:11;;;;;;;13.32;8.85;;;18.80;86.80;;;;;;5046289;28;20040;-50
2021/06/12 06:45:41;;;;;;;16.58;9.48;;;18.80;85.80;;;;;;5043041;28;20045;-56
2021/06/12 06:48:16;;;;;;;14.80;8.13;;;18.80;85.50;;;;;;5042672;28;20136;-57
2021/06/12 06:50:46;;;;;;;16.70;8.77;;;18.80;85.50;;;;;;5046828;28;20059;-56
2021/06/12 06:53:32;;;;;;;15.38;8.68;;;18.70;85.50;;;;;;5045238;28;20494;-58
2021/06/12 06:56:01;;;;;;;12.15;8.32;;;18.80;85.40;;;;;;5051238;28;20552;-55
2021/06/12 06:58:28;;;;;;;13.27;7.38;;;18.90;85.70;;;;;;5063857;28;20052;-56
2021/06/12 07:00:55;;;;;;;13.15;7.30;;;18.90;84.90;;;;;;5026811;28;20128;-56
2021/06/12 07:03:21;;;;;;;9.93;7.22;;;18.90;84.00;;;;;;5053862;28;20048;-55
2021/06/12 07:05:47;;;;;;;16.75;10.70;;;18.90;84.30;;;;;;5051416;28;20086;-56
2021/06/12 07:08:14;;;;;;;16.15;10.90;;;18.80;85.00;;;;;;5055946;28;20051;-56
2021/06/12 07:10:41;;;;;;;18.83;10.07;;;18.80;85.00;;;;;;5042992;28;20041;-57
2021/06/12 07:13:17;;;;;;;17.77;10.35;;;18.80;85.00;;;;;;5046732;28;20490;-53
2021/06/12 07:15:44;;;;;;;13.65;9.07;;;18.80;84.80;;;;;;5059809;28;20040;-53
2021/06/12 07:18:27;;;;;;;12.57;8.75;;;18.90;84.60;;;;;;5053399;28;20501;-53
2021/06/12 07:20:54;;;;;;;13.38;9.20;;;18.90;83.70;;;;;;5030613;28;20045;-54
2021/06/12 07:23:32;;;;;;;12.25;8.50;;;18.90;83.70;;;;;;5034055;28;20451;-54
2021/06/12 07:26:00;;;;;;;10.48;7.50;;;18.90;83.60;;;;;;5043998;28;20048;-55
2021/06/12 07:28:26;;;;;;;11.77;7.72;;;18.90;83.50;;;;;;5050937;28;20535;-57
2021/06/12 07:30:55;;;;;;;10.40;7.00;;;18.90;84.10;;;;;;5049824;28;20051;-55
2021/06/12 07:33:22;;;;;;;10.15;7.18;;;18.90;83.80;;;;;;5051372;28;20049;-56
2021/06/12 07:35:49;;;;;;;9.00;6.28;;;18.90;83.90;;;;;;5048732;28;20044;-54
2021/06/12 07:38:15;;;;;;;10.85;6.18;;;19.00;82.90;;;;;;5057964;28;20383;-57
2021/06/12 07:40:43;;;;;;;12.15;6.57;;;19.00;82.90;;;;;;5050632;28;20086;-55
2021/06/12 07:43:10;;;;;;;9.75;5.57;;;19.10;82.30;;;;;;5065414;28;20041;-56
2021/06/12 07:45:36;;;;;;;13.43;5.10;;;19.10;81.50;;;;;;5047020;28;20071;-55
2021/06/12 07:48:04;;;;;;;10.65;5.07;;;19.20;80.70;;;;;;5043778;28;20045;-55
2021/06/12 07:50:30;;;;;;;10.10;5.05;;;19.30;79.40;;;;;;5050278;28;20182;-55
2021/06/12 07:52:56;;;;;;;9.30;4.55;;;19.20;78.40;;;;;;5048752;28;20090;-55
2021/06/12 07:55:22;;;;;;;10.13;4.20;;;19.30;76.90;;;;;;5039422;28;20053;-55
2021/06/12 07:57:49;;;;;;;7.82;4.40;;;19.30;75.90;;;;;;5033028;28;20643;-54
2021/06/12 08:00:17;;;;;;;13.30;4.40;;;19.20;76.70;;;;;;5044813;28;20045;-58
2021/06/12 08:03:04;;;;;;;6.90;3.97;;;19.20;77.70;;;;;;5007064;28;20065;-58
2021/06/12 08:05:38;;;;;;;8.43;4.15;;;19.30;78.50;;;;;;5049104;28;20045;-56
2021/06/12 08:08:04;;;;;;;9.93;4.03;;;19.40;76.80;;;;;;5070558;28;20068;-58
2021/06/12 08:10:31;;;;;;;8.40;4.25;;;19.60;76.70;;;;;;5044512;28;20041;-58
2021/06/12 08:12:57;;;;;;;10.60;3.85;;;19.80;77.10;;;;;;5049621;28;20055;-55
2021/06/12 08:15:23;;;;;;;11.43;4.25;;;19.90;75.70;;;;;;5049244;28;20049;-58
2021/06/12 08:17:51;;;;;;;13.25;4.20;;;19.90;75.80;;;;;;5046140;28;20520;-58
2021/06/12 08:20:17;;;;;;;8.65;3.95;;;20.00;73.90;;;;;;5048723;28;20120;-58
2021/06/12 08:22:43;;;;;;;8.70;3.88;;;20.10;72.20;;;;;;5050496;28;20040;-58
2021/06/12 08:25:10;;;;;;;8.95;3.88;;;20.10;70.10;;;;;;5050569;28;20041;-55
2021/06/12 08:27:37;;;;;;;10.38;3.83;;;20.10;69.10;;;;;;5059694;28;20049;-57
2021/06/12 08:30:05;;;;;;;8.73;4.38;;;20.10;69.20;;;;;;5056416;28;20540;-56
2021/06/12 08:32:31;;;;;;;8.93;4.00;;;20.10;70.00;;;;;;5063364;28;20132;-58
2021/06/12 08:34:56;;;;;;;9.70;3.88;;;20.20;71.00;;;;;;5062713;28;20119;-57
2021/06/12 08:37:23;;;;;;;7.00;4.18;;;20.20;69.60;;;;;;5040108;28;20141;-55
2021/06/12 08:39:50;;;;;;;7.25;3.60;;;20.10;70.10;;;;;;5046598;28;20143;-58
2021/06/12 08:42:17;;;;;;;9.68;4.32;;;20.10;69.90;;;;;;5047508;28;20056;-56
2021/06/12 08:44:44;;;;;;;10.73;4.05;;;20.10;69.50;;;;;;5054304;28;20133;-56
2021/06/12 08:47:10;;;;;;;8.35;3.55;;;20.20;69.00;;;;;;5049014;28;20504;-56
2021/06/12 08:49:37;;;;;;;10.50;3.90;;;20.10;69.50;;;;;;5051761;28;20049;-56
2021/06/12 08:52:06;;;;;;;11.55;4.03;;;20.10;70.40;;;;;;5066862;28;20064;-55
2021/06/12 08:54:34;;;;;;;8.48;3.25;;;20.20;70.00;;;;;;5034762;28;20060;-57
2021/06/12 08:56:59;;;;;;;10.13;4.32;;;20.30;68.60;;;;;;5054094;28;20190;-55
2021/06/12 08:59:27;;;;;;;7.97;3.83;;;20.40;68.90;;;;;;5053615;28;20048;-55
2021/06/12 09:01:53;;;;;;;8.50;3.60;;;20.40;69.80;;;;;;5031726;28;20148;-57
2021/06/12 09:04:49;;;;;;;9.40;4.13;;;20.40;69.40;;;;;;5049850;28;20132;-56
2021/06/12 09:07:36;;;;;;;7.65;3.55;;;20.50;70.50;;;;;;5052538;28;20049;-55
2021/06/12 09:10:02;;;;;;;8.18;3.35;;;20.60;68.70;;;;;;5049666;28;20076;-56
2021/06/12 09:12:48;;;;;;;8.20;3.80;;;20.60;67.40;;;;;;5043984;28;20388;-55
2021/06/12 09:15:16;;;;;;;7.70;3.28;;;20.60;67.20;;;;;;5054753;28;20740;-55
2021/06/12 09:17:45;;;;;;;8.23;3.63;;;20.80;65.70;;;;;;5049432;28;20120;-53
2021/06/12 09:20:15;;;;;;;9.65;3.47;;;20.80;66.60;;;;;;5048962;28;20048;-52
2021/06/12 09:22:41;;;;;;;14.38;3.50;;;20.80;65.10;;;;;;5054024;28;20132;-54
2021/06/12 09:25:07;;;;;;;10.95;3.50;;;20.90;64.50;;;;;;5050889;28;20125;-54
2021/06/12 09:27:34;;;;;;;8.93;3.22;;;21.00;63.50;;;;;;5040462;28;20524;-53
2021/06/12 09:30:03;;;;;;;7.32;3.30;;;21.00;63.30;;;;;;5026152;28;20498;-53
2021/06/12 09:32:32;;;;;;;14.00;3.55;;;20.90;63.60;;;;;;5067447;28;20045;-54
2021/06/12 09:35:08;;;;;;;7.30;3.20;;;20.80;65.00;;;;;;5053438;28;20117;-56
2021/06/12 09:37:36;;;;;;;7.40;3.00;;;20.90;64.80;;;;;;5052496;28;20049;-53
2021/06/12 09:40:08;;;;;;;9.32;3.88;;;20.80;63.00;;;;;;5050546;28;20045;-55
2021/06/12 09:42:45;;;;;;;8.73;2.92;;;20.80;62.50;;;;;;5053865;28;20037;-55
2021/06/12 09:45:13;;;;;;;9.40;3.58;;;20.50;62.70;;;;;;5058018;28;20565;-54
2021/06/12 09:47:40;;;;;;;8.10;3.35;;;20.50;64.00;;;;;;5047977;28;20049;-54
2021/06/12 09:50:08;;;;;;;8.35;3.30;;;20.60;63.70;;;;;;5035199;28;20076;-53
2021/06/12 09:52:42;;;;;;;8.32;3.00;;;20.70;62.90;;;;;;5055551;28;20068;-53
2021/06/12 09:55:20;;;;;;;6.43;3.00;;;20.70;63.90;;;;;;5052343;28;20037;-55
2021/06/12 09:57:50;;;;;;;8.85;3.22;;;20.90;63.40;;;;;;5047510;28;20452;-54
2021/06/12 10:00:16;;;;;;;6.00;2.95;;;21.10;62.80;;;;;;5052213;28;20029;-54
2021/06/12 10:02:46;;;;;;;10.57;2.95;;;21.20;59.90;;;;;;5048492;28;20394;-54
2021/06/12 10:05:16;;;;;;;8.43;2.95;;;21.20;57.50;;;;;;5046593;28;20693;-51
2021/06/12 10:07:45;;;;;;;8.63;2.67;;;21.20;59.30;;;;;;5049929;28;20041;-54
2021/06/12 10:10:13;;;;;;;10.75;3.10;;;21.10;59.30;;;;;;5037480;28;20037;-53
2021/06/12 10:12:41;;;;;;;8.85;2.83;;;21.10;60.40;;;;;;5048571;28;20173;-53
2021/06/12 10:15:12;;;;;;;8.55;2.95;;;21.10;60.00;;;;;;5050345;28;20405;-53
2021/06/12 10:17:45;;;;;;;9.13;3.40;;;21.00;59.10;;;;;;5068092;28;20438;-54
2021/06/12 10:20:13;;;;;;;13.27;2.50;;;21.00;61.10;;;;;;5045461;28;20396;-53
2021/06/12 10:22:46;;;;;;;7.00;2.80;;;20.90;60.00;;;;;;5052807;28;20044;-53
2021/06/12 10:25:15;;;;;;;7.60;2.70;;;20.70;60.50;;;;;;5051721;28;20401;-53
2021/06/12 10:27:42;;;;;;;5.93;2.40;;;20.60;60.00;;;;;;5061603;28;20485;-54
2021/06/12 10:30:11;;;;;;;9.45;2.78;;;20.50;59.60;;;;;;5050595;28;20053;-57
2021/06/12 10:32:46;;;;;;;8.45;2.88;;;20.50;60.40;;;;;;5052482;28;20044;-56
2021/06/12 10:35:17;;;;;;;8.38;2.65;;;20.50;60.30;;;;;;5051877;28;20076;-56
2021/06/12 10:37:58;;;;;;;7.70;2.60;;;20.50;60.00;;;;;;5051234;28;20056;-56
2021/06/12 10:40:45;;;;;;;7.03;2.42;;;20.60;61.10;;;;;;5051802;28;20090;-56
2021/06/12 10:43:19;;;;;;;6.70;2.00;;;20.50;58.00;;;;;;5067186;28;20549;-57
2021/06/12 10:45:48;;;;;;;8.95;2.85;;;20.60;57.50;;;;;;5051974;28;20382;-56
2021/06/12 10:48:59;;;;;;;8.40;2.28;;;20.50;57.70;;;;;;5052837;28;20448;-57
2021/06/12 10:51:25;;;;;;;9.85;2.38;;;20.40;55.80;;;;;;5009545;28;20132;-56
2021/06/12 10:54:10;;;;;;;8.25;2.80;;;20.50;58.30;;;;;;5042740;28;20099;-55
2021/06/12 10:56:39;;;;;;;9.35;2.47;;;20.50;57.60;;;;;;5046282;28;20374;-54
2021/06/12 10:59:06;;;;;;;6.43;2.70;;;20.60;58.60;;;;;;5051546;28;20037;-56
2021/06/12 11:01:31;;;;;;;9.38;2.40;;;20.50;58.40;;;;;;5050385;28;20493;-55
2021/06/12 11:06:55;;;;;;;8.45;2.33;;;20.40;58.50;;;;;;5047360;28;20044;-56
2021/06/12 11:09:34;;;;;;;8.25;2.30;;;20.50;60.80;;;;;;5051688;28;20051;-54
2021/06/12 11:12:24;;;;;;;5.65;2.20;;;20.70;58.30;;;;;;5051148;28;20470;-56
2021/06/12 11:15:22;;;;;;;6.25;2.20;;;20.80;59.10;;;;;;5046383;28;20045;-55
2021/06/12 11:18:12;;;;;;;6.85;2.40;;;20.80;58.10;;;;;;5043576;28;20055;-55
2021/06/12 11:20:43;;;;;;;7.47;2.60;;;20.60;59.00;;;;;;5037851;28;20041;-55
2021/06/12 11:23:11;;;;;;;6.77;2.00;;;20.60;60.00;;;;;;5050653;28;20037;-55
2021/06/12 11:25:39;;;;;;;4.53;1.90;;;20.70;59.30;;;;;;5050348;28;20604;-54
2021/06/12 11:28:23;;;;;;;6.68;2.10;;;20.80;57.80;;;;;;5051546;28;20060;-57
2021/06/12 11:30:51;;;;;;;9.02;2.40;;;21.00;59.60;;;;;;5050794;28;20044;-55
2021/06/12 11:33:17;;;;;;;8.20;2.97;;;21.10;59.20;;;;;;5051334;28;20062;-55
2021/06/12 11:35:51;;;;;;;9.65;3.22;;;21.00;57.60;;;;;;5050259;28;20108;-54
2021/06/12 11:38:30;;;;;;;11.73;2.92;;;21.00;59.50;;;;;;5046807;28;20524;-55
2021/06/12 11:41:02;;;;;;;5.88;2.20;;;20.90;58.30;;;;;;5049137;28;20539;-55
2021/06/12 11:43:33;;;;;;;6.75;2.20;;;20.90;58.10;;;;;;5046828;28;20049;-56
2021/06/12 11:46:00;;;;;;;5.50;2.33;;;21.00;56.90;;;;;;5048725;28;20128;-56
2021/06/12 11:48:26;;;;;;;8.38;2.33;;;21.00;57.90;;;;;;5051344;28;20044;-55
2021/06/12 11:50:52;;;;;;;5.78;2.20;;;21.10;56.90;;;;;;5051211;28;20052;-55
2021/06/12 11:53:20;;;;;;;7.57;2.30;;;21.00;57.30;;;;;;5051112;28;20060;-54
2021/06/12 11:55:47;;;;;;;7.63;2.17;;;21.00;58.00;;;;;;5050711;28;20048;-56
2021/06/12 11:58:15;;;;;;;8.30;2.08;;;21.10;59.30;;;;;;5049541;28;20087;-56
2021/06/12 12:00:45;;;;;;;7.25;1.92;;;21.10;58.00;;;;;;5046749;28;20052;-56
2021/06/12 12:03:14;;;;;;;6.22;1.80;;;21.00;56.80;;;;;;5034048;28;20116;-56
2021/06/12 12:05:48;;;;;;;4.90;1.90;;;21.00;56.80;;;;;;5050614;28;20049;-55
2021/06/12 12:08:19;;;;;;;5.50;2.10;;;21.10;58.10;;;;;;5050436;28;20078;-56
2021/06/12 12:10:53;;;;;;;5.78;1.88;;;21.30;57.40;;;;;;5050786;28;20041;-54
2021/06/12 12:13:38;;;;;;;6.55;2.00;;;21.40;58.30;;;;;;5049403;28;20045;-56
2021/06/12 12:16:05;;;;;;;6.82;1.88;;;21.60;57.10;;;;;;5049635;28;20048;-55
2021/06/12 12:18:46;;;;;;;7.30;2.22;;;21.60;56.90;;;;;;5032178;28;20497;-55
2021/06/12 12:21:12;;;;;;;4.65;1.88;;;21.50;55.60;;;;;;5063244;28;20420;-56
2021/06/12 12:23:37;;;;;;;5.97;1.90;;;21.30;54.70;;;;;;5052396;28;20033;-56
2021/06/12 12:26:09;;;;;;;5.03;1.98;;;21.30;55.00;;;;;;5054364;28;20041;-54
2021/06/12 12:28:58;;;;;;;5.25;1.80;;;21.50;55.60;;;;;;5054609;28;20048;-54
2021/06/12 12:31:26;;;;;;;5.88;1.80;;;21.50;55.10;;;;;;5041068;28;20130;-54
2021/06/12 12:33:55;;;;;;;3.97;1.52;;;21.60;55.10;;;;;;5034942;28;20049;-55
2021/06/12 12:36:23;;;;;;;7.32;2.03;;;21.50;54.20;;;;;;5041126;28;20112;-56
2021/06/12 12:39:09;;;;;;;5.57;1.70;;;21.30;54.20;;;;;;5052770;28;20033;-56
2021/06/12 12:41:36;;;;;;;5.13;1.90;;;21.30;55.40;;;;;;5053098;28;20037;-54
2021/06/12 12:44:14;;;;;;;7.03;1.60;;;21.30;55.90;;;;;;5054330;28;20041;-55
2021/06/12 12:46:42;;;;;;;5.22;1.77;;;21.30;56.20;;;;;;5053839;28;20068;-55
2021/06/12 12:49:10;;;;;;;5.68;1.95;;;21.30;55.00;;;;;;5053938;28;20045;-55
2021/06/12 12:51:38;;;;;;;4.82;1.70;;;21.20;55.50;;;;;;5065539;28;20044;-57
2021/06/12 12:54:14;;;;;;;7.68;2.00;;;21.20;56.70;;;;;;5056207;28;20045;-55
2021/06/12 12:57:04;;;;;;;6.57;2.00;;;21.20;56.50;;;;;;5053624;28;20052;-55
2021/06/12 12:59:31;;;;;;;9.57;2.42;;;21.30;57.40;;;;;;5054102;28;20040;-55
2021/06/12 13:01:58;;;;;;;4.47;1.63;;;21.40;56.30;;;;;;5065868;28;20404;-54
2021/06/12 13:04:30;;;;;;;5.25;1.95;;;21.40;57.40;;;;;;5053304;28;20136;-55
2021/06/12 13:07:18;;;;;;;3.13;1.63;;;21.30;55.50;;;;;;5054085;28;20091;-54
2021/06/12 13:09:47;;;;;;;6.60;2.13;;;21.20;53.40;;;;;;5053597;28;20060;-56
2021/06/12 13:12:19;;;;;;;6.65;1.77;;;21.00;54.80;;;;;;5054520;28;20513;-56
2021/06/12 13:15:10;;;;;;;5.25;2.00;;;20.90;55.90;;;;;;5053062;28;20148;-55
2021/06/12 13:17:37;;;;;;;12.30;2.15;;;20.80;56.60;;;;;;5052791;28;20037;-55